sensor_id;sensor_type;location;lat;lon;timestamp;P1;durP1;ratioP1;P2;durP2;ratioP2
40731;SDS011;26420;52.256;9.096;2022-08-03T00:04:22;2.60;;;2.40;;
40731;SDS011;26420;52.256;9.096;2022-08-03T00:09:34;3.22;;;2.75;;
40731;SDS011;26420;52.256;9.096;2022-08-03T00:14:36;3.58;;;2.70;;
40731;SDS011;26420;52.256;9.096;2022-08-03T00:19:37;3.13;;;2.83;;
40731;SDS011;26420;52.256;9.096;2022-08-03T00:24:39;4.35;;;2.92;;
40731;SDS011;26420;52.256;9.096;2022-08-03T00:29:41;3.45;;;2.85;;
40731;SDS011;26420;52.256;9.096;2022-08-03T00:35:00;4.03;;;2.85;;
40731;SDS011;26420;52.256;9.096;2022-08-03T00:40:10;5.70;;;2.70;;
40731;SDS011;26420;52.256;9.096;2022-08-03T00:45:13;4.80;;;2.50;;
40731;SDS011;26420;52.256;9.096;2022-08-03T00:50:15;3.00;;;2.70;;
40731;SDS011;26420;52.256;9.096;2022-08-03T00:55:18;3.35;;;2.83;;
40731;SDS011;26420;52.256;9.096;2022-08-03T01:00:21;3.95;;;2.88;;
40731;SDS011;26420;52.256;9.096;2022-08-03T01:05:25;3.10;;;2.80;;
40731;SDS011;26420;52.256;9.096;2022-08-03T01:21:55;5.75;;;2.70;;
40731;SDS011;26420;52.256;9.096;2022-08-03T01:27:16;5.30;;;3.10;;
40731;SDS011;26420;52.256;9.096;2022-08-03T01:32:27;2.95;;;2.70;;
40731;SDS011;26420;52.256;9.096;2022-08-03T01:37:56;2.83;;;2.55;;
40731;SDS011;26420;52.256;9.096;2022-08-03T01:43:02;3.45;;;2.65;;
40731;SDS011;26420;52.256;9.096;2022-08-03T01:48:06;3.67;;;2.63;;
40731;SDS011;26420;52.256;9.096;2022-08-03T01:53:09;3.97;;;2.58;;
40731;SDS011;26420;52.256;9.096;2022-08-03T01:58:15;3.80;;;2.77;;
40731;SDS011;26420;52.256;9.096;2022-08-03T02:03:18;3.00;;;2.70;;
40731;SDS011;26420;52.256;9.096;2022-08-03T02:08:23;3.08;;;2.78;;
40731;SDS011;26420;52.256;9.096;2022-08-03T02:13:27;2.90;;;2.60;;
40731;SDS011;26420;52.256;9.096;2022-08-03T02:18:31;4.32;;;3.00;;
40731;SDS011;26420;52.256;9.096;2022-08-03T02:23:33;3.30;;;3.00;;
40731;SDS011;26420;52.256;9.096;2022-08-03T02:28:37;3.13;;;2.70;;
40731;SDS011;26420;52.256;9.096;2022-08-03T02:33:42;3.43;;;2.60;;
40731;SDS011;26420;52.256;9.096;2022-08-03T02:38:50;5.80;;;2.63;;
40731;SDS011;26420;52.256;9.096;2022-08-03T02:43:55;3.80;;;2.85;;
40731;SDS011;26420;52.256;9.096;2022-08-03T02:49:07;2.90;;;2.63;;
40731;SDS011;26420;52.256;9.096;2022-08-03T02:54:31;3.10;;;2.80;;
40731;SDS011;26420;52.256;9.096;2022-08-03T02:59:34;3.45;;;2.80;;
40731;SDS011;26420;52.256;9.096;2022-08-03T03:04:38;7.82;;;2.55;;
40731;SDS011;26420;52.256;9.096;2022-08-03T03:10:01;3.13;;;2.72;;
40731;SDS011;26420;52.256;9.096;2022-08-03T03:15:04;3.63;;;2.92;;
40731;SDS011;26420;52.256;9.096;2022-08-03T03:20:06;4.10;;;2.38;;
40731;SDS011;26420;52.256;9.096;2022-08-03T03:25:09;3.33;;;2.70;;
40731;SDS011;26420;52.256;9.096;2022-08-03T03:30:12;4.20;;;2.65;;
40731;SDS011;26420;52.256;9.096;2022-08-03T03:35:14;3.83;;;2.65;;
40731;SDS011;26420;52.256;9.096;2022-08-03T03:40:16;4.13;;;2.50;;
40731;SDS011;26420;52.256;9.096;2022-08-03T03:45:19;5.80;;;3.00;;
40731;SDS011;26420;52.256;9.096;2022-08-03T03:50:22;3.17;;;2.60;;
40731;SDS011;26420;52.256;9.096;2022-08-03T03:55:24;7.88;;;3.00;;
40731;SDS011;26420;52.256;9.096;2022-08-03T04:00:26;5.97;;;3.22;;
40731;SDS011;26420;52.256;9.096;2022-08-03T04:05:28;4.25;;;2.92;;
40731;SDS011;26420;52.256;9.096;2022-08-03T04:10:53;4.70;;;3.03;;
40731;SDS011;26420;52.256;9.096;2022-08-03T04:15:58;5.45;;;3.47;;
40731;SDS011;26420;52.256;9.096;2022-08-03T04:21:02;3.92;;;2.95;;
40731;SDS011;26420;52.256;9.096;2022-08-03T04:26:08;5.30;;;3.33;;
40731;SDS011;26420;52.256;9.096;2022-08-03T04:31:13;3.45;;;3.05;;
40731;SDS011;26420;52.256;9.096;2022-08-03T04:36:16;5.38;;;3.03;;
40731;SDS011;26420;52.256;9.096;2022-08-03T04:41:22;5.20;;;3.03;;
40731;SDS011;26420;52.256;9.096;2022-08-03T04:46:33;3.58;;;3.08;;
40731;SDS011;26420;52.256;9.096;2022-08-03T04:51:38;5.10;;;3.03;;
40731;SDS011;26420;52.256;9.096;2022-08-03T04:56:41;5.70;;;2.90;;
40731;SDS011;26420;52.256;9.096;2022-08-03T05:01:43;3.28;;;2.80;;
40731;SDS011;26420;52.256;9.096;2022-08-03T05:06:45;5.22;;;3.35;;
40731;SDS011;26420;52.256;9.096;2022-08-03T05:11:48;3.28;;;2.95;;
40731;SDS011;26420;52.256;9.096;2022-08-03T05:16:50;5.13;;;2.63;;
40731;SDS011;26420;52.256;9.096;2022-08-03T05:21:52;4.90;;;2.88;;
40731;SDS011;26420;52.256;9.096;2022-08-03T05:26:54;3.25;;;2.70;;
40731;SDS011;26420;52.256;9.096;2022-08-03T05:31:56;3.83;;;2.70;;
40731;SDS011;26420;52.256;9.096;2022-08-03T05:36:57;4.45;;;2.65;;
40731;SDS011;26420;52.256;9.096;2022-08-03T05:41:59;6.88;;;2.75;;
40731;SDS011;26420;52.256;9.096;2022-08-03T05:47:02;3.60;;;2.80;;
40731;SDS011;26420;52.256;9.096;2022-08-03T05:52:03;5.10;;;2.78;;
40731;SDS011;26420;52.256;9.096;2022-08-03T05:57:16;5.75;;;2.65;;
40731;SDS011;26420;52.256;9.096;2022-08-03T06:02:18;3.78;;;2.42;;
40731;SDS011;26420;52.256;9.096;2022-08-03T06:07:20;5.18;;;2.63;;
40731;SDS011;26420;52.256;9.096;2022-08-03T06:12:21;3.35;;;2.50;;
40731;SDS011;26420;52.256;9.096;2022-08-03T06:17:23;4.80;;;2.85;;
40731;SDS011;26420;52.256;9.096;2022-08-03T06:22:26;5.32;;;2.92;;
40731;SDS011;26420;52.256;9.096;2022-08-03T06:27:28;3.15;;;2.80;;
40731;SDS011;26420;52.256;9.096;2022-08-03T06:32:38;3.00;;;2.33;;
40731;SDS011;26420;52.256;9.096;2022-08-03T06:37:40;2.95;;;2.30;;
40731;SDS011;26420;52.256;9.096;2022-08-03T06:42:46;3.00;;;2.47;;
40731;SDS011;26420;52.256;9.096;2022-08-03T06:48:00;5.05;;;2.38;;
40731;SDS011;26420;52.256;9.096;2022-08-03T06:53:03;3.25;;;2.35;;
40731;SDS011;26420;52.256;9.096;2022-08-03T06:58:05;6.47;;;2.40;;
40731;SDS011;26420;52.256;9.096;2022-08-03T07:03:07;2.72;;;2.40;;
40731;SDS011;26420;52.256;9.096;2022-08-03T07:08:08;5.22;;;2.45;;
40731;SDS011;26420;52.256;9.096;2022-08-03T07:13:10;5.97;;;2.63;;
40731;SDS011;26420;52.256;9.096;2022-08-03T07:18:12;4.32;;;2.42;;
40731;SDS011;26420;52.256;9.096;2022-08-03T07:23:14;4.50;;;2.40;;
40731;SDS011;26420;52.256;9.096;2022-08-03T07:28:19;5.45;;;2.70;;
40731;SDS011;26420;52.256;9.096;2022-08-03T07:33:21;2.70;;;2.33;;
40731;SDS011;26420;52.256;9.096;2022-08-03T07:38:23;5.22;;;2.58;;
40731;SDS011;26420;52.256;9.096;2022-08-03T07:43:25;3.80;;;2.42;;
40731;SDS011;26420;52.256;9.096;2022-08-03T07:48:27;3.45;;;2.58;;
40731;SDS011;26420;52.256;9.096;2022-08-03T07:53:28;3.22;;;2.28;;
40731;SDS011;26420;52.256;9.096;2022-08-03T07:58:30;3.33;;;2.40;;
40731;SDS011;26420;52.256;9.096;2022-08-03T08:03:32;3.50;;;2.67;;
40731;SDS011;26420;52.256;9.096;2022-08-03T08:08:53;2.50;;;2.28;;
40731;SDS011;26420;52.256;9.096;2022-08-03T08:13:59;2.95;;;1.98;;
40731;SDS011;26420;52.256;9.096;2022-08-03T08:19:03;2.30;;;1.95;;
40731;SDS011;26420;52.256;9.096;2022-08-03T08:24:05;2.88;;;1.80;;
40731;SDS011;26420;52.256;9.096;2022-08-03T08:29:18;1.67;;;1.58;;
40731;SDS011;26420;52.256;9.096;2022-08-03T08:34:23;1.77;;;1.20;;
40731;SDS011;26420;52.256;9.096;2022-08-03T08:39:25;1.58;;;1.23;;
40731;SDS011;26420;52.256;9.096;2022-08-03T08:44:27;5.57;;;1.70;;
40731;SDS011;26420;52.256;9.096;2022-08-03T08:49:30;1.60;;;1.13;;
40731;SDS011;26420;52.256;9.096;2022-08-03T08:54:35;2.50;;;1.30;;
40731;SDS011;26420;52.256;9.096;2022-08-03T08:59:42;3.40;;;1.42;;
40731;SDS011;26420;52.256;9.096;2022-08-03T09:04:50;2.60;;;1.30;;
40731;SDS011;26420;52.256;9.096;2022-08-03T09:09:51;2.35;;;1.40;;
40731;SDS011;26420;52.256;9.096;2022-08-03T09:15:26;2.22;;;1.38;;
40731;SDS011;26420;52.256;9.096;2022-08-03T09:20:33;2.17;;;1.52;;
40731;SDS011;26420;52.256;9.096;2022-08-03T09:25:38;2.37;;;1.57;;
40731;SDS011;26420;52.256;9.096;2022-08-03T09:30:44;2.40;;;1.30;;
40731;SDS011;26420;52.256;9.096;2022-08-03T09:35:59;3.25;;;1.40;;
40731;SDS011;26420;52.256;9.096;2022-08-03T09:41:00;1.30;;;1.10;;
40731;SDS011;26420;52.256;9.096;2022-08-03T09:46:03;3.47;;;1.40;;
40731;SDS011;26420;52.256;9.096;2022-08-03T09:51:05;3.30;;;1.50;;
40731;SDS011;26420;52.256;9.096;2022-08-03T09:56:44;3.95;;;1.90;;
40731;SDS011;26420;52.256;9.096;2022-08-03T10:01:47;4.25;;;1.52;;
40731;SDS011;26420;52.256;9.096;2022-08-03T10:12:06;3.70;;;1.60;;
40731;SDS011;26420;52.256;9.096;2022-08-03T10:17:08;1.70;;;1.20;;
40731;SDS011;26420;52.256;9.096;2022-08-03T10:22:14;3.28;;;1.73;;
40731;SDS011;26420;52.256;9.096;2022-08-03T10:27:19;2.35;;;1.40;;
40731;SDS011;26420;52.256;9.096;2022-08-03T10:37:29;1.33;;;1.23;;
40731;SDS011;26420;52.256;9.096;2022-08-03T10:42:33;2.42;;;1.38;;
40731;SDS011;26420;52.256;9.096;2022-08-03T10:47:36;2.00;;;1.30;;
40731;SDS011;26420;52.256;9.096;2022-08-03T10:52:57;2.58;;;1.30;;
40731;SDS011;26420;52.256;9.096;2022-08-03T10:58:06;2.67;;;1.40;;
40731;SDS011;26420;52.256;9.096;2022-08-03T11:03:12;2.60;;;1.27;;
40731;SDS011;26420;52.256;9.096;2022-08-03T11:08:31;2.45;;;1.27;;
40731;SDS011;26420;52.256;9.096;2022-08-03T11:13:35;2.55;;;1.30;;
40731;SDS011;26420;52.256;9.096;2022-08-03T11:18:37;5.07;;;1.40;;
40731;SDS011;26420;52.256;9.096;2022-08-03T11:23:59;3.40;;;1.58;;
40731;SDS011;26420;52.256;9.096;2022-08-03T11:29:25;2.45;;;1.25;;
40731;SDS011;26420;52.256;9.096;2022-08-03T11:34:30;1.88;;;1.10;;
40731;SDS011;26420;52.256;9.096;2022-08-03T11:39:39;2.72;;;1.35;;
40731;SDS011;26420;52.256;9.096;2022-08-03T11:44:46;3.83;;;1.75;;
40731;SDS011;26420;52.256;9.096;2022-08-03T11:49:48;5.30;;;1.73;;
40731;SDS011;26420;52.256;9.096;2022-08-03T11:54:51;2.85;;;1.33;;
40731;SDS011;26420;52.256;9.096;2022-08-03T11:59:57;2.55;;;1.20;;
40731;SDS011;26420;52.256;9.096;2022-08-03T12:04:59;2.97;;;1.08;;
40731;SDS011;26420;52.256;9.096;2022-08-03T12:15:10;2.17;;;1.30;;
40731;SDS011;26420;52.256;9.096;2022-08-03T12:20:15;4.10;;;1.27;;
40731;SDS011;26420;52.256;9.096;2022-08-03T12:25:36;2.03;;;1.40;;
40731;SDS011;26420;52.256;9.096;2022-08-03T12:30:40;1.30;;;1.13;;
40731;SDS011;26420;52.256;9.096;2022-08-03T12:35:43;3.08;;;1.15;;
40731;SDS011;26420;52.256;9.096;2022-08-03T12:40:56;2.50;;;1.05;;
40731;SDS011;26420;52.256;9.096;2022-08-03T12:46:13;1.73;;;1.15;;
40731;SDS011;26420;52.256;9.096;2022-08-03T12:51:16;1.98;;;1.15;;
40731;SDS011;26420;52.256;9.096;2022-08-03T12:56:18;2.83;;;1.30;;
40731;SDS011;26420;52.256;9.096;2022-08-03T13:01:20;3.33;;;1.13;;
40731;SDS011;26420;52.256;9.096;2022-08-03T13:06:26;3.92;;;1.52;;
40731;SDS011;26420;52.256;9.096;2022-08-03T13:11:28;2.22;;;1.33;;
40731;SDS011;26420;52.256;9.096;2022-08-03T13:16:49;1.63;;;1.20;;
40731;SDS011;26420;52.256;9.096;2022-08-03T13:21:52;3.20;;;1.30;;
40731;SDS011;26420;52.256;9.096;2022-08-03T13:27:05;3.10;;;1.23;;
40731;SDS011;26420;52.256;9.096;2022-08-03T13:32:27;2.20;;;1.15;;
40731;SDS011;26420;52.256;9.096;2022-08-03T13:37:29;2.35;;;1.38;;
40731;SDS011;26420;52.256;9.096;2022-08-03T13:42:33;3.42;;;1.38;;
40731;SDS011;26420;52.256;9.096;2022-08-03T13:47:35;3.00;;;1.30;;
40731;SDS011;26420;52.256;9.096;2022-08-03T13:52:38;2.30;;;1.30;;
40731;SDS011;26420;52.256;9.096;2022-08-03T13:57:39;2.58;;;1.17;;
40731;SDS011;26420;52.256;9.096;2022-08-03T14:03:01;2.05;;;1.45;;
40731;SDS011;26420;52.256;9.096;2022-08-03T14:08:13;3.03;;;1.00;;
40731;SDS011;26420;52.256;9.096;2022-08-03T14:13:15;2.22;;;1.20;;
40731;SDS011;26420;52.256;9.096;2022-08-03T14:18:18;2.15;;;1.30;;
40731;SDS011;26420;52.256;9.096;2022-08-03T14:23:29;1.85;;;1.20;;
40731;SDS011;26420;52.256;9.096;2022-08-03T14:28:31;2.33;;;1.20;;
40731;SDS011;26420;52.256;9.096;2022-08-03T14:33:33;2.22;;;1.30;;
40731;SDS011;26420;52.256;9.096;2022-08-03T14:38:34;1.90;;;1.20;;
40731;SDS011;26420;52.256;9.096;2022-08-03T14:43:36;1.35;;;1.10;;
40731;SDS011;26420;52.256;9.096;2022-08-03T14:48:38;2.88;;;1.33;;
40731;SDS011;26420;52.256;9.096;2022-08-03T14:53:59;1.65;;;1.08;;
40731;SDS011;26420;52.256;9.096;2022-08-03T14:59:02;3.58;;;1.30;;
40731;SDS011;26420;52.256;9.096;2022-08-03T15:04:03;1.77;;;1.45;;
40731;SDS011;26420;52.256;9.096;2022-08-03T15:09:05;3.28;;;1.30;;
40731;SDS011;26420;52.256;9.096;2022-08-03T15:14:23;2.25;;;1.45;;
40731;SDS011;26420;52.256;9.096;2022-08-03T15:19:32;2.95;;;1.30;;
40731;SDS011;26420;52.256;9.096;2022-08-03T15:24:54;3.10;;;1.60;;
40731;SDS011;26420;52.256;9.096;2022-08-03T15:29:56;1.42;;;1.30;;
40731;SDS011;26420;52.256;9.096;2022-08-03T15:35:10;2.80;;;1.60;;
40731;SDS011;26420;52.256;9.096;2022-08-03T15:40:12;2.13;;;1.20;;
40731;SDS011;26420;52.256;9.096;2022-08-03T15:45:13;2.22;;;1.60;;
40731;SDS011;26420;52.256;9.096;2022-08-03T15:50:18;4.03;;;1.42;;
40731;SDS011;26420;52.256;9.096;2022-08-03T15:55:20;3.10;;;1.63;;
40731;SDS011;26420;52.256;9.096;2022-08-03T16:00:23;1.77;;;1.45;;
40731;SDS011;26420;52.256;9.096;2022-08-03T16:05:34;3.83;;;1.65;;
40731;SDS011;26420;52.256;9.096;2022-08-03T16:10:35;1.90;;;1.23;;
40731;SDS011;26420;52.256;9.096;2022-08-03T16:15:37;2.22;;;1.60;;
40731;SDS011;26420;52.256;9.096;2022-08-03T16:20:39;2.13;;;1.27;;
40731;SDS011;26420;52.256;9.096;2022-08-03T16:25:42;1.73;;;1.30;;
40731;SDS011;26420;52.256;9.096;2022-08-03T16:30:49;2.92;;;1.40;;
40731;SDS011;26420;52.256;9.096;2022-08-03T16:35:51;3.88;;;1.35;;
40731;SDS011;26420;52.256;9.096;2022-08-03T16:40:52;3.53;;;1.45;;
40731;SDS011;26420;52.256;9.096;2022-08-03T16:45:54;3.03;;;1.30;;
40731;SDS011;26420;52.256;9.096;2022-08-03T16:50:56;2.88;;;1.70;;
40731;SDS011;26420;52.256;9.096;2022-08-03T16:55:58;4.57;;;1.50;;
40731;SDS011;26420;52.256;9.096;2022-08-03T17:01:00;2.38;;;1.40;;
40731;SDS011;26420;52.256;9.096;2022-08-03T17:06:21;1.63;;;1.20;;
40731;SDS011;26420;52.256;9.096;2022-08-03T17:11:34;2.92;;;1.60;;
40731;SDS011;26420;52.256;9.096;2022-08-03T17:16:37;2.65;;;1.60;;
40731;SDS011;26420;52.256;9.096;2022-08-03T17:21:47;4.03;;;1.58;;
40731;SDS011;26420;52.256;9.096;2022-08-03T17:26:55;4.55;;;1.95;;
40731;SDS011;26420;52.256;9.096;2022-08-03T17:32:02;2.25;;;1.60;;
40731;SDS011;26420;52.256;9.096;2022-08-03T17:37:11;2.70;;;1.70;;
40731;SDS011;26420;52.256;9.096;2022-08-03T17:42:34;2.70;;;1.65;;
40731;SDS011;26420;52.256;9.096;2022-08-03T17:47:38;2.63;;;1.67;;
40731;SDS011;26420;52.256;9.096;2022-08-03T17:52:43;3.92;;;2.00;;
40731;SDS011;26420;52.256;9.096;2022-08-03T17:57:52;3.88;;;1.70;;
40731;SDS011;26420;52.256;9.096;2022-08-03T18:03:07;4.28;;;1.60;;
40731;SDS011;26420;52.256;9.096;2022-08-03T18:08:28;3.80;;;1.90;;
40731;SDS011;26420;52.256;9.096;2022-08-03T18:13:39;3.33;;;1.67;;
40731;SDS011;26420;52.256;9.096;2022-08-03T18:18:59;2.47;;;1.90;;
40731;SDS011;26420;52.256;9.096;2022-08-03T18:24:22;4.00;;;2.17;;
40731;SDS011;26420;52.256;9.096;2022-08-03T18:29:25;3.85;;;1.85;;
40731;SDS011;26420;52.256;9.096;2022-08-03T18:34:30;2.40;;;1.83;;
40731;SDS011;26420;52.256;9.096;2022-08-03T18:39:36;3.33;;;2.05;;
40731;SDS011;26420;52.256;9.096;2022-08-03T18:44:50;2.80;;;2.00;;
40731;SDS011;26420;52.256;9.096;2022-08-03T18:50:41;3.92;;;2.33;;
40731;SDS011;26420;52.256;9.096;2022-08-03T18:55:32;4.30;;;2.15;;
40731;SDS011;26420;52.256;9.096;2022-08-03T19:06:45;2.50;;;2.00;;
40731;SDS011;26420;52.256;9.096;2022-08-03T19:11:52;5.57;;;2.00;;
40731;SDS011;26420;52.256;9.096;2022-08-03T19:17:14;5.00;;;2.00;;
40731;SDS011;26420;52.256;9.096;2022-08-03T19:22:21;3.33;;;1.85;;
40731;SDS011;26420;52.256;9.096;2022-08-03T19:27:28;3.00;;;2.05;;
40731;SDS011;26420;52.256;9.096;2022-08-03T19:32:32;3.28;;;1.98;;
40731;SDS011;26420;52.256;9.096;2022-08-03T19:37:35;3.22;;;1.92;;
40731;SDS011;26420;52.256;9.096;2022-08-03T19:42:44;3.87;;;2.03;;
40731;SDS011;26420;52.256;9.096;2022-08-03T19:48:02;6.50;;;2.10;;
40731;SDS011;26420;52.256;9.096;2022-08-03T19:53:11;5.90;;;2.10;;
40731;SDS011;26420;52.256;9.096;2022-08-03T19:58:13;3.20;;;2.05;;
40731;SDS011;26420;52.256;9.096;2022-08-03T20:03:28;4.47;;;2.00;;
40731;SDS011;26420;52.256;9.096;2022-08-03T20:08:43;4.47;;;2.00;;
40731;SDS011;26420;52.256;9.096;2022-08-03T20:13:51;3.75;;;1.77;;
40731;SDS011;26420;52.256;9.096;2022-08-03T20:18:55;2.88;;;1.80;;
40731;SDS011;26420;52.256;9.096;2022-08-03T20:23:58;2.33;;;1.75;;
40731;SDS011;26420;52.256;9.096;2022-08-03T20:29:24;5.43;;;2.10;;
40731;SDS011;26420;52.256;9.096;2022-08-03T20:34:50;2.42;;;1.83;;
40731;SDS011;26420;52.256;9.096;2022-08-03T20:39:53;3.42;;;2.22;;
40731;SDS011;26420;52.256;9.096;2022-08-03T20:44:56;4.35;;;2.17;;
40731;SDS011;26420;52.256;9.096;2022-08-03T20:50:07;3.45;;;2.22;;
40731;SDS011;26420;52.256;9.096;2022-08-03T20:55:11;3.10;;;2.13;;
40731;SDS011;26420;52.256;9.096;2022-08-03T21:00:15;4.18;;;2.50;;
40731;SDS011;26420;52.256;9.096;2022-08-03T21:05:22;3.15;;;2.28;;
40731;SDS011;26420;52.256;9.096;2022-08-03T21:10:46;4.47;;;2.38;;
40731;SDS011;26420;52.256;9.096;2022-08-03T21:15:52;3.22;;;2.40;;
40731;SDS011;26420;52.256;9.096;2022-08-03T21:21:15;4.18;;;2.38;;
40731;SDS011;26420;52.256;9.096;2022-08-03T21:26:20;7.60;;;2.70;;
40731;SDS011;26420;52.256;9.096;2022-08-03T21:31:24;3.92;;;2.22;;
40731;SDS011;26420;52.256;9.096;2022-08-03T21:36:31;8.93;;;2.27;;
40731;SDS011;26420;52.256;9.096;2022-08-03T21:41:37;5.18;;;2.25;;
40731;SDS011;26420;52.256;9.096;2022-08-03T21:51:48;5.75;;;2.50;;
40731;SDS011;26420;52.256;9.096;2022-08-03T21:56:59;2.40;;;2.17;;
40731;SDS011;26420;52.256;9.096;2022-08-03T22:02:05;3.65;;;2.55;;
40731;SDS011;26420;52.256;9.096;2022-08-03T22:07:27;5.30;;;2.47;;
40731;SDS011;26420;52.256;9.096;2022-08-03T22:12:32;4.68;;;2.60;;
40731;SDS011;26420;52.256;9.096;2022-08-03T22:17:37;4.05;;;2.53;;
40731;SDS011;26420;52.256;9.096;2022-08-03T22:22:59;5.07;;;2.78;;
40731;SDS011;26420;52.256;9.096;2022-08-03T22:28:04;6.47;;;2.97;;
40731;SDS011;26420;52.256;9.096;2022-08-03T22:33:07;4.85;;;2.78;;
40731;SDS011;26420;52.256;9.096;2022-08-03T22:38:12;4.35;;;2.28;;
40731;SDS011;26420;52.256;9.096;2022-08-03T22:43:14;6.18;;;3.15;;
40731;SDS011;26420;52.256;9.096;2022-08-03T22:48:17;7.70;;;2.95;;
40731;SDS011;26420;52.256;9.096;2022-08-03T22:53:20;9.75;;;3.33;;
40731;SDS011;26420;52.256;9.096;2022-08-03T22:58:25;7.32;;;2.90;;
40731;SDS011;26420;52.256;9.096;2022-08-03T23:03:31;6.82;;;2.72;;
40731;SDS011;26420;52.256;9.096;2022-08-03T23:08:56;4.90;;;2.60;;
40731;SDS011;26420;52.256;9.096;2022-08-03T23:13:58;5.15;;;2.75;;
40731;SDS011;26420;52.256;9.096;2022-08-03T23:19:04;4.15;;;2.55;;
40731;SDS011;26420;52.256;9.096;2022-08-03T23:24:25;7.82;;;3.00;;
40731;SDS011;26420;52.256;9.096;2022-08-03T23:29:30;6.07;;;2.65;;
40731;SDS011;26420;52.256;9.096;2022-08-03T23:34:35;5.70;;;3.03;;
40731;SDS011;26420;52.256;9.096;2022-08-03T23:39:58;4.93;;;2.55;;
40731;SDS011;26420;52.256;9.096;2022-08-03T23:45:01;6.97;;;2.72;;
40731;SDS011;26420;52.256;9.096;2022-08-03T23:50:06;5.20;;;2.40;;
40731;SDS011;26420;52.256;9.096;2022-08-03T23:55:27;5.50;;;2.90;;
